sensor_id;sensor_type;location;lat;lon;timestamp;temperature;humidity
27823;DHT22;29019;47.630;8.262;2023-12-28T00:00:36;20.30;48.50
27823;DHT22;29019;47.630;8.262;2023-12-28T00:04:37;20.30;48.40
27823;DHT22;29019;47.630;8.262;2023-12-28T00:08:38;20.30;48.50
27823;DHT22;29019;47.630;8.262;2023-12-28T00:12:39;20.30;48.40
27823;DHT22;29019;47.630;8.262;2023-12-28T00:16:39;20.30;48.30
27823;DHT22;29019;47.630;8.262;2023-12-28T00:20:40;20.20;48.20
27823;DHT22;29019;47.630;8.262;2023-12-28T00:24:41;20.20;48.50
27823;DHT22;29019;47.630;8.262;2023-12-28T00:28:41;20.20;48.40
27823;DHT22;29019;47.630;8.262;2023-12-28T00:32:45;19.90;47.60
27823;DHT22;29019;47.630;8.262;2023-12-28T00:36:46;19.90;46.70
27823;DHT22;29019;47.630;8.262;2023-12-28T00:40:47;19.80;46.80
27823;DHT22;29019;47.630;8.262;2023-12-28T00:44:47;19.90;46.60
27823;DHT22;29019;47.630;8.262;2023-12-28T00:48:48;19.90;46.90
27823;DHT22;29019;47.630;8.262;2023-12-28T00:52:49;19.80;46.80
27823;DHT22;29019;47.630;8.262;2023-12-28T00:56:50;19.80;46.90
27823;DHT22;29019;47.630;8.262;2023-12-28T01:00:50;19.80;47.00
27823;DHT22;29019;47.630;8.262;2023-12-28T01:04:54;19.80;47.10
27823;DHT22;29019;47.630;8.262;2023-12-28T01:08:57;19.80;47.60
27823;DHT22;29019;47.630;8.262;2023-12-28T01:12:58;19.80;47.20
27823;DHT22;29019;47.630;8.262;2023-12-28T01:16:58;19.80;47.30
27823;DHT22;29019;47.630;8.262;2023-12-28T01:20:59;19.80;47.30
27823;DHT22;29019;47.630;8.262;2023-12-28T01:25:00;19.80;47.40
27823;DHT22;29019;47.630;8.262;2023-12-28T01:29:00;19.70;47.60
27823;DHT22;29019;47.630;8.262;2023-12-28T01:33:04;19.70;47.60
27823;DHT22;29019;47.630;8.262;2023-12-28T01:37:05;19.70;47.60
27823;DHT22;29019;47.630;8.262;2023-12-28T01:41:05;19.60;47.70
27823;DHT22;29019;47.630;8.262;2023-12-28T01:45:06;19.60;47.70
27823;DHT22;29019;47.630;8.262;2023-12-28T01:49:07;19.60;47.60
27823;DHT22;29019;47.630;8.262;2023-12-28T01:53:08;19.60;47.70
27823;DHT22;29019;47.630;8.262;2023-12-28T01:57:11;19.60;47.70
27823;DHT22;29019;47.630;8.262;2023-12-28T02:01:12;19.70;47.80
27823;DHT22;29019;47.630;8.262;2023-12-28T02:05:14;19.60;47.80
27823;DHT22;29019;47.630;8.262;2023-12-28T02:09:15;19.60;47.80
27823;DHT22;29019;47.630;8.262;2023-12-28T02:13:16;19.60;47.90
27823;DHT22;29019;47.630;8.262;2023-12-28T02:17:42;19.60;48.20
27823;DHT22;29019;47.630;8.262;2023-12-28T02:21:44;19.50;48.00
27823;DHT22;29019;47.630;8.262;2023-12-28T02:25:45;19.50;48.10
27823;DHT22;29019;47.630;8.262;2023-12-28T02:29:46;19.50;48.10
27823;DHT22;29019;47.630;8.262;2023-12-28T02:33:57;19.50;48.10
27823;DHT22;29019;47.630;8.262;2023-12-28T02:38:05;19.50;48.10
27823;DHT22;29019;47.630;8.262;2023-12-28T02:42:06;19.50;48.20
27823;DHT22;29019;47.630;8.262;2023-12-28T02:46:07;19.40;48.20
27823;DHT22;29019;47.630;8.262;2023-12-28T02:50:08;19.50;48.30
27823;DHT22;29019;47.630;8.262;2023-12-28T02:54:08;19.50;48.30
27823;DHT22;29019;47.630;8.262;2023-12-28T02:58:09;19.40;48.20
27823;DHT22;29019;47.630;8.262;2023-12-28T03:02:10;19.50;48.20
27823;DHT22;29019;47.630;8.262;2023-12-28T03:06:11;19.50;48.20
27823;DHT22;29019;47.630;8.262;2023-12-28T03:10:12;19.40;48.80
27823;DHT22;29019;47.630;8.262;2023-12-28T03:14:12;19.40;48.20
27823;DHT22;29019;47.630;8.262;2023-12-28T03:18:13;19.40;48.20
27823;DHT22;29019;47.630;8.262;2023-12-28T03:22:14;19.40;48.20
27823;DHT22;29019;47.630;8.262;2023-12-28T03:26:15;19.40;48.30
27823;DHT22;29019;47.630;8.262;2023-12-28T03:30:16;19.40;48.20
27823;DHT22;29019;47.630;8.262;2023-12-28T03:34:17;19.40;48.30
27823;DHT22;29019;47.630;8.262;2023-12-28T03:38:18;19.40;48.30
27823;DHT22;29019;47.630;8.262;2023-12-28T03:42:18;19.40;48.20
27823;DHT22;29019;47.630;8.262;2023-12-28T03:46:19;19.40;48.30
27823;DHT22;29019;47.630;8.262;2023-12-28T03:50:20;19.40;48.30
27823;DHT22;29019;47.630;8.262;2023-12-28T03:54:20;19.40;48.30
27823;DHT22;29019;47.630;8.262;2023-12-28T03:58:21;19.40;48.20
27823;DHT22;29019;47.630;8.262;2023-12-28T04:02:22;19.40;48.30
27823;DHT22;29019;47.630;8.262;2023-12-28T04:06:25;19.40;48.60
27823;DHT22;29019;47.630;8.262;2023-12-28T04:10:31;19.40;48.60
27823;DHT22;29019;47.630;8.262;2023-12-28T04:14:32;19.30;48.50
27823;DHT22;29019;47.630;8.262;2023-12-28T04:18:32;19.30;48.60
27823;DHT22;29019;47.630;8.262;2023-12-28T04:22:33;19.30;48.60
27823;DHT22;29019;47.630;8.262;2023-12-28T04:26:34;19.30;48.60
27823;DHT22;29019;47.630;8.262;2023-12-28T04:30:35;19.30;48.50
27823;DHT22;29019;47.630;8.262;2023-12-28T04:34:35;19.30;48.30
27823;DHT22;29019;47.630;8.262;2023-12-28T04:38:36;19.30;48.40
27823;DHT22;29019;47.630;8.262;2023-12-28T04:42:39;19.30;48.40
27823;DHT22;29019;47.630;8.262;2023-12-28T04:46:39;19.30;48.60
27823;DHT22;29019;47.630;8.262;2023-12-28T04:50:42;19.30;48.50
27823;DHT22;29019;47.630;8.262;2023-12-28T04:54:43;19.30;48.60
27823;DHT22;29019;47.630;8.262;2023-12-28T04:58:44;19.30;48.70
27823;DHT22;29019;47.630;8.262;2023-12-28T05:02:46;19.30;48.70
27823;DHT22;29019;47.630;8.262;2023-12-28T05:06:47;19.30;48.60
27823;DHT22;29019;47.630;8.262;2023-12-28T05:10:47;19.30;48.80
27823;DHT22;29019;47.630;8.262;2023-12-28T05:14:48;19.30;48.70
27823;DHT22;29019;47.630;8.262;2023-12-28T05:18:49;19.30;48.80
27823;DHT22;29019;47.630;8.262;2023-12-28T05:22:49;19.30;48.60
27823;DHT22;29019;47.630;8.262;2023-12-28T05:26:50;19.40;48.50
27823;DHT22;29019;47.630;8.262;2023-12-28T05:30:51;19.50;48.40
27823;DHT22;29019;47.630;8.262;2023-12-28T05:34:51;19.50;48.30
27823;DHT22;29019;47.630;8.262;2023-12-28T05:38:52;19.50;48.10
27823;DHT22;29019;47.630;8.262;2023-12-28T05:42:53;19.60;48.30
27823;DHT22;29019;47.630;8.262;2023-12-28T05:46:53;19.60;48.00
27823;DHT22;29019;47.630;8.262;2023-12-28T05:50:54;19.60;48.00
27823;DHT22;29019;47.630;8.262;2023-12-28T05:54:55;19.60;47.90
27823;DHT22;29019;47.630;8.262;2023-12-28T05:58:56;19.60;47.90
27823;DHT22;29019;47.630;8.262;2023-12-28T06:02:57;19.60;47.80
27823;DHT22;29019;47.630;8.262;2023-12-28T06:06:58;19.60;47.80
27823;DHT22;29019;47.630;8.262;2023-12-28T06:10:59;19.60;47.80
27823;DHT22;29019;47.630;8.262;2023-12-28T06:15:00;19.60;48.00
27823;DHT22;29019;47.630;8.262;2023-12-28T06:19:01;19.60;48.10
27823;DHT22;29019;47.630;8.262;2023-12-28T06:23:02;19.60;47.70
27823;DHT22;29019;47.630;8.262;2023-12-28T06:27:03;19.60;47.70
27823;DHT22;29019;47.630;8.262;2023-12-28T06:31:04;19.50;47.60
27823;DHT22;29019;47.630;8.262;2023-12-28T06:35:05;19.50;47.80
27823;DHT22;29019;47.630;8.262;2023-12-28T06:39:06;19.50;47.60
27823;DHT22;29019;47.630;8.262;2023-12-28T06:43:07;19.60;47.80
27823;DHT22;29019;47.630;8.262;2023-12-28T06:47:07;19.60;47.80
27823;DHT22;29019;47.630;8.262;2023-12-28T06:51:08;19.60;48.30
27823;DHT22;29019;47.630;8.262;2023-12-28T06:55:09;19.60;47.90
27823;DHT22;29019;47.630;8.262;2023-12-28T06:59:09;19.60;47.80
27823;DHT22;29019;47.630;8.262;2023-12-28T07:03:12;19.60;48.30
27823;DHT22;29019;47.630;8.262;2023-12-28T07:07:13;19.60;47.70
27823;DHT22;29019;47.630;8.262;2023-12-28T07:11:13;19.60;47.80
27823;DHT22;29019;47.630;8.262;2023-12-28T07:15:14;19.60;47.90
27823;DHT22;29019;47.630;8.262;2023-12-28T07:19:15;19.60;47.80
27823;DHT22;29019;47.630;8.262;2023-12-28T07:23:15;19.60;47.60
27823;DHT22;29019;47.630;8.262;2023-12-28T07:27:16;19.60;47.80
27823;DHT22;29019;47.630;8.262;2023-12-28T07:31:24;19.50;47.60
27823;DHT22;29019;47.630;8.262;2023-12-28T07:35:25;19.60;47.90
27823;DHT22;29019;47.630;8.262;2023-12-28T07:39:26;19.50;47.80
27823;DHT22;29019;47.630;8.262;2023-12-28T07:43:27;19.60;47.70
27823;DHT22;29019;47.630;8.262;2023-12-28T07:47:28;19.60;47.80
27823;DHT22;29019;47.630;8.262;2023-12-28T07:51:29;19.60;48.10
27823;DHT22;29019;47.630;8.262;2023-12-28T07:55:30;19.60;48.20
27823;DHT22;29019;47.630;8.262;2023-12-28T07:59:30;19.60;48.00
27823;DHT22;29019;47.630;8.262;2023-12-28T08:03:31;19.60;47.90
27823;DHT22;29019;47.630;8.262;2023-12-28T08:07:32;19.60;47.80
27823;DHT22;29019;47.630;8.262;2023-12-28T08:11:32;19.60;47.80
27823;DHT22;29019;47.630;8.262;2023-12-28T08:15:33;19.50;47.80
27823;DHT22;29019;47.630;8.262;2023-12-28T08:19:34;19.50;47.90
27823;DHT22;29019;47.630;8.262;2023-12-28T08:23:34;19.60;48.20
27823;DHT22;29019;47.630;8.262;2023-12-28T08:27:35;19.60;48.20
27823;DHT22;29019;47.630;8.262;2023-12-28T08:31:36;19.60;48.20
27823;DHT22;29019;47.630;8.262;2023-12-28T08:35:36;19.60;48.30
27823;DHT22;29019;47.630;8.262;2023-12-28T08:39:37;19.60;48.30
27823;DHT22;29019;47.630;8.262;2023-12-28T08:43:39;19.60;48.20
27823;DHT22;29019;47.630;8.262;2023-12-28T08:47:40;19.60;48.20
27823;DHT22;29019;47.630;8.262;2023-12-28T08:51:41;19.70;48.40
27823;DHT22;29019;47.630;8.262;2023-12-28T08:55:42;19.60;48.30
27823;DHT22;29019;47.630;8.262;2023-12-28T08:59:43;19.60;48.10
27823;DHT22;29019;47.630;8.262;2023-12-28T09:03:44;19.70;48.30
27823;DHT22;29019;47.630;8.262;2023-12-28T09:07:45;19.70;48.20
27823;DHT22;29019;47.630;8.262;2023-12-28T09:11:45;19.70;48.30
27823;DHT22;29019;47.630;8.262;2023-12-28T09:15:46;19.70;48.50
27823;DHT22;29019;47.630;8.262;2023-12-28T09:19:47;19.70;48.40
27823;DHT22;29019;47.630;8.262;2023-12-28T09:23:48;19.70;48.50
27823;DHT22;29019;47.630;8.262;2023-12-28T09:27:48;19.70;47.90
27823;DHT22;29019;47.630;8.262;2023-12-28T09:31:49;19.70;48.00
27823;DHT22;29019;47.630;8.262;2023-12-28T09:35:50;19.70;47.80
27823;DHT22;29019;47.630;8.262;2023-12-28T09:39:50;19.70;49.60
27823;DHT22;29019;47.630;8.262;2023-12-28T09:44:11;19.80;49.60
27823;DHT22;29019;47.630;8.262;2023-12-28T09:48:16;19.80;49.10
27823;DHT22;29019;47.630;8.262;2023-12-28T09:52:18;19.90;48.50
27823;DHT22;29019;47.630;8.262;2023-12-28T09:56:19;19.80;48.80
27823;DHT22;29019;47.630;8.262;2023-12-28T10:00:20;19.80;48.80
27823;DHT22;29019;47.630;8.262;2023-12-28T10:04:21;19.80;48.60
27823;DHT22;29019;47.630;8.262;2023-12-28T10:08:21;19.70;48.60
27823;DHT22;29019;47.630;8.262;2023-12-28T10:12:22;19.80;48.80
27823;DHT22;29019;47.630;8.262;2023-12-28T10:16:24;19.70;48.80
27823;DHT22;29019;47.630;8.262;2023-12-28T10:20:27;19.70;48.70
27823;DHT22;29019;47.630;8.262;2023-12-28T10:24:28;19.70;48.70
27823;DHT22;29019;47.630;8.262;2023-12-28T10:28:31;19.70;48.50
27823;DHT22;29019;47.630;8.262;2023-12-28T10:32:33;19.80;49.50
27823;DHT22;29019;47.630;8.262;2023-12-28T10:36:34;19.80;50.40
27823;DHT22;29019;47.630;8.262;2023-12-28T10:40:37;19.90;50.30
27823;DHT22;29019;47.630;8.262;2023-12-28T10:44:43;19.90;50.10
27823;DHT22;29019;47.630;8.262;2023-12-28T10:48:47;19.90;50.20
27823;DHT22;29019;47.630;8.262;2023-12-28T10:52:55;19.90;50.30
27823;DHT22;29019;47.630;8.262;2023-12-28T10:57:07;19.90;50.20
27823;DHT22;29019;47.630;8.262;2023-12-28T11:01:12;19.90;50.10
27823;DHT22;29019;47.630;8.262;2023-12-28T11:05:16;19.90;50.10
27823;DHT22;29019;47.630;8.262;2023-12-28T11:09:18;19.90;50.00
27823;DHT22;29019;47.630;8.262;2023-12-28T11:13:21;19.90;50.00
27823;DHT22;29019;47.630;8.262;2023-12-28T11:17:23;19.90;49.70
27823;DHT22;29019;47.630;8.262;2023-12-28T11:21:27;19.90;49.40
27823;DHT22;29019;47.630;8.262;2023-12-28T11:25:31;19.60;47.40
27823;DHT22;29019;47.630;8.262;2023-12-28T11:29:33;19.30;45.90
27823;DHT22;29019;47.630;8.262;2023-12-28T11:33:50;19.40;46.40
27823;DHT22;29019;47.630;8.262;2023-12-28T11:37:54;19.60;46.90
27823;DHT22;29019;47.630;8.262;2023-12-28T11:42:05;19.70;45.70
27823;DHT22;29019;47.630;8.262;2023-12-28T11:46:07;19.70;46.50
27823;DHT22;29019;47.630;8.262;2023-12-28T11:50:09;19.80;46.80
27823;DHT22;29019;47.630;8.262;2023-12-28T11:54:09;19.80;46.80
27823;DHT22;29019;47.630;8.262;2023-12-28T11:58:10;19.90;47.30
27823;DHT22;29019;47.630;8.262;2023-12-28T12:02:11;19.90;47.90
27823;DHT22;29019;47.630;8.262;2023-12-28T12:06:11;20.00;48.20
27823;DHT22;29019;47.630;8.262;2023-12-28T12:10:15;20.00;47.70
27823;DHT22;29019;47.630;8.262;2023-12-28T12:14:16;20.00;47.70
27823;DHT22;29019;47.630;8.262;2023-12-28T12:18:17;20.00;47.60
27823;DHT22;29019;47.630;8.262;2023-12-28T12:22:17;20.00;47.60
27823;DHT22;29019;47.630;8.262;2023-12-28T12:26:19;20.10;48.40
27823;DHT22;29019;47.630;8.262;2023-12-28T12:30:20;20.10;47.70
27823;DHT22;29019;47.630;8.262;2023-12-28T12:34:21;20.10;47.90
27823;DHT22;29019;47.630;8.262;2023-12-28T12:38:21;20.00;47.70
27823;DHT22;29019;47.630;8.262;2023-12-28T12:42:23;20.10;48.20
27823;DHT22;29019;47.630;8.262;2023-12-28T12:46:24;20.10;48.20
27823;DHT22;29019;47.630;8.262;2023-12-28T12:50:25;20.10;48.60
27823;DHT22;29019;47.630;8.262;2023-12-28T12:54:26;20.20;48.60
27823;DHT22;29019;47.630;8.262;2023-12-28T12:58:29;20.20;48.50
27823;DHT22;29019;47.630;8.262;2023-12-28T13:02:33;20.20;48.70
27823;DHT22;29019;47.630;8.262;2023-12-28T13:06:34;20.30;48.60
27823;DHT22;29019;47.630;8.262;2023-12-28T13:10:34;20.20;48.60
27823;DHT22;29019;47.630;8.262;2023-12-28T13:14:35;20.20;48.30
27823;DHT22;29019;47.630;8.262;2023-12-28T13:18:36;20.20;48.70
27823;DHT22;29019;47.630;8.262;2023-12-28T13:22:37;20.20;48.90
27823;DHT22;29019;47.630;8.262;2023-12-28T13:26:37;20.30;48.80
27823;DHT22;29019;47.630;8.262;2023-12-28T13:30:38;20.40;49.00
27823;DHT22;29019;47.630;8.262;2023-12-28T13:34:39;20.40;48.60
27823;DHT22;29019;47.630;8.262;2023-12-28T13:38:40;20.40;49.10
27823;DHT22;29019;47.630;8.262;2023-12-28T13:42:43;20.40;49.20
27823;DHT22;29019;47.630;8.262;2023-12-28T13:46:44;20.40;49.30
27823;DHT22;29019;47.630;8.262;2023-12-28T13:50:45;20.40;49.30
27823;DHT22;29019;47.630;8.262;2023-12-28T13:54:46;20.40;49.30
27823;DHT22;29019;47.630;8.262;2023-12-28T13:58:46;20.40;49.40
27823;DHT22;29019;47.630;8.262;2023-12-28T14:02:47;20.40;49.30
27823;DHT22;29019;47.630;8.262;2023-12-28T14:06:48;20.40;49.80
27823;DHT22;29019;47.630;8.262;2023-12-28T14:10:48;20.50;49.50
27823;DHT22;29019;47.630;8.262;2023-12-28T14:14:49;20.40;49.50
27823;DHT22;29019;47.630;8.262;2023-12-28T14:18:50;20.50;49.80
27823;DHT22;29019;47.630;8.262;2023-12-28T14:22:52;20.40;49.60
27823;DHT22;29019;47.630;8.262;2023-12-28T14:26:54;20.50;50.00
27823;DHT22;29019;47.630;8.262;2023-12-28T14:30:55;20.50;50.30
27823;DHT22;29019;47.630;8.262;2023-12-28T14:34:56;20.50;50.40
27823;DHT22;29019;47.630;8.262;2023-12-28T14:38:57;20.50;50.40
27823;DHT22;29019;47.630;8.262;2023-12-28T14:42:58;20.50;50.70
27823;DHT22;29019;47.630;8.262;2023-12-28T14:46:58;20.50;50.70
27823;DHT22;29019;47.630;8.262;2023-12-28T14:50:59;20.50;50.50
27823;DHT22;29019;47.630;8.262;2023-12-28T14:55:00;20.50;50.70
27823;DHT22;29019;47.630;8.262;2023-12-28T14:59:00;20.50;50.70
27823;DHT22;29019;47.630;8.262;2023-12-28T15:03:01;20.50;50.40
27823;DHT22;29019;47.630;8.262;2023-12-28T15:07:02;20.20;49.30
27823;DHT22;29019;47.630;8.262;2023-12-28T15:11:03;20.20;49.00
27823;DHT22;29019;47.630;8.262;2023-12-28T15:15:04;20.30;48.90
27823;DHT22;29019;47.630;8.262;2023-12-28T15:19:05;20.30;49.00
27823;DHT22;29019;47.630;8.262;2023-12-28T15:23:07;20.40;49.00
27823;DHT22;29019;47.630;8.262;2023-12-28T15:27:08;20.40;49.50
27823;DHT22;29019;47.630;8.262;2023-12-28T15:31:08;20.40;49.40
27823;DHT22;29019;47.630;8.262;2023-12-28T15:35:13;20.40;49.10
27823;DHT22;29019;47.630;8.262;2023-12-28T15:39:15;20.50;49.30
27823;DHT22;29019;47.630;8.262;2023-12-28T15:43:15;20.50;49.60
27823;DHT22;29019;47.630;8.262;2023-12-28T15:47:16;20.50;49.90
27823;DHT22;29019;47.630;8.262;2023-12-28T15:51:20;20.50;49.70
27823;DHT22;29019;47.630;8.262;2023-12-28T15:55:21;20.50;49.70
27823;DHT22;29019;47.630;8.262;2023-12-28T15:59:22;20.50;49.70
27823;DHT22;29019;47.630;8.262;2023-12-28T16:03:23;20.50;49.60
27823;DHT22;29019;47.630;8.262;2023-12-28T16:07:23;20.50;49.90
27823;DHT22;29019;47.630;8.262;2023-12-28T16:11:24;20.50;49.80
27823;DHT22;29019;47.630;8.262;2023-12-28T16:15:25;20.50;49.50
27823;DHT22;29019;47.630;8.262;2023-12-28T16:19:26;20.50;49.70
27823;DHT22;29019;47.630;8.262;2023-12-28T16:23:27;20.50;49.80
27823;DHT22;29019;47.630;8.262;2023-12-28T16:27:28;20.50;50.20
27823;DHT22;29019;47.630;8.262;2023-12-28T16:31:29;20.40;50.10
27823;DHT22;29019;47.630;8.262;2023-12-28T16:35:30;20.50;50.40
27823;DHT22;29019;47.630;8.262;2023-12-28T16:39:30;20.50;50.30
27823;DHT22;29019;47.630;8.262;2023-12-28T16:43:32;20.40;50.30
27823;DHT22;29019;47.630;8.262;2023-12-28T16:47:32;20.50;50.30
27823;DHT22;29019;47.630;8.262;2023-12-28T16:51:33;20.50;50.50
27823;DHT22;29019;47.630;8.262;2023-12-28T16:55:34;20.50;52.80
27823;DHT22;29019;47.630;8.262;2023-12-28T16:59:34;20.60;53.70
27823;DHT22;29019;47.630;8.262;2023-12-28T17:03:35;20.70;53.80
27823;DHT22;29019;47.630;8.262;2023-12-28T17:07:36;20.60;54.50
27823;DHT22;29019;47.630;8.262;2023-12-28T17:11:39;20.50;51.60
27823;DHT22;29019;47.630;8.262;2023-12-28T17:15:42;20.10;50.60
27823;DHT22;29019;47.630;8.262;2023-12-28T17:19:43;19.80;47.70
27823;DHT22;29019;47.630;8.262;2023-12-28T17:23:47;19.60;47.10
27823;DHT22;29019;47.630;8.262;2023-12-28T17:27:52;19.40;45.80
27823;DHT22;29019;47.630;8.262;2023-12-28T17:31:54;19.80;45.50
27823;DHT22;29019;47.630;8.262;2023-12-28T17:35:57;20.10;45.10
27823;DHT22;29019;47.630;8.262;2023-12-28T17:39:57;20.40;45.40
27823;DHT22;29019;47.630;8.262;2023-12-28T17:44:06;20.50;46.20
27823;DHT22;29019;47.630;8.262;2023-12-28T17:48:07;20.70;47.80
27823;DHT22;29019;47.630;8.262;2023-12-28T17:52:10;20.90;47.60
27823;DHT22;29019;47.630;8.262;2023-12-28T17:56:12;20.90;47.60
27823;DHT22;29019;47.630;8.262;2023-12-28T18:00:18;21.00;47.30
27823;DHT22;29019;47.630;8.262;2023-12-28T18:04:18;20.80;48.20
27823;DHT22;29019;47.630;8.262;2023-12-28T18:08:19;20.70;48.90
27823;DHT22;29019;47.630;8.262;2023-12-28T18:12:20;20.80;48.30
27823;DHT22;29019;47.630;8.262;2023-12-28T18:16:20;20.80;47.80
27823;DHT22;29019;47.630;8.262;2023-12-28T18:20:22;20.90;47.70
27823;DHT22;29019;47.630;8.262;2023-12-28T18:24:22;20.90;47.30
27823;DHT22;29019;47.630;8.262;2023-12-28T18:28:23;21.00;47.50
27823;DHT22;29019;47.630;8.262;2023-12-28T18:32:24;21.00;47.20
27823;DHT22;29019;47.630;8.262;2023-12-28T18:36:25;21.00;47.10
27823;DHT22;29019;47.630;8.262;2023-12-28T18:40:25;21.10;47.00
27823;DHT22;29019;47.630;8.262;2023-12-28T18:44:26;21.10;47.00
27823;DHT22;29019;47.630;8.262;2023-12-28T18:48:32;21.10;47.10
27823;DHT22;29019;47.630;8.262;2023-12-28T18:52:33;21.00;48.00
27823;DHT22;29019;47.630;8.262;2023-12-28T18:56:34;20.90;48.60
27823;DHT22;29019;47.630;8.262;2023-12-28T19:00:36;20.90;48.00
27823;DHT22;29019;47.630;8.262;2023-12-28T19:04:37;21.00;47.70
27823;DHT22;29019;47.630;8.262;2023-12-28T19:08:37;21.10;47.20
27823;DHT22;29019;47.630;8.262;2023-12-28T19:12:38;21.20;46.90
27823;DHT22;29019;47.630;8.262;2023-12-28T19:16:39;21.30;46.80
27823;DHT22;29019;47.630;8.262;2023-12-28T19:20:40;21.20;46.70
27823;DHT22;29019;47.630;8.262;2023-12-28T19:24:40;21.20;46.60
27823;DHT22;29019;47.630;8.262;2023-12-28T19:28:41;21.20;46.50
27823;DHT22;29019;47.630;8.262;2023-12-28T19:32:42;21.20;46.30
27823;DHT22;29019;47.630;8.262;2023-12-28T19:36:43;21.30;46.20
27823;DHT22;29019;47.630;8.262;2023-12-28T19:40:43;21.30;46.20
27823;DHT22;29019;47.630;8.262;2023-12-28T19:44:45;21.30;46.20
27823;DHT22;29019;47.630;8.262;2023-12-28T19:48:46;21.30;46.40
27823;DHT22;29019;47.630;8.262;2023-12-28T19:52:46;21.30;46.10
27823;DHT22;29019;47.630;8.262;2023-12-28T19:56:47;21.30;46.20
27823;DHT22;29019;47.630;8.262;2023-12-28T20:00:48;21.30;46.00
27823;DHT22;29019;47.630;8.262;2023-12-28T20:04:49;21.40;46.00
27823;DHT22;29019;47.630;8.262;2023-12-28T20:08:49;21.40;46.10
27823;DHT22;29019;47.630;8.262;2023-12-28T20:12:50;21.40;46.20
27823;DHT22;29019;47.630;8.262;2023-12-28T20:16:51;21.40;46.20
27823;DHT22;29019;47.630;8.262;2023-12-28T20:20:51;21.40;46.30
27823;DHT22;29019;47.630;8.262;2023-12-28T20:24:52;21.30;46.20
27823;DHT22;29019;47.630;8.262;2023-12-28T20:28:53;21.30;46.20
27823;DHT22;29019;47.630;8.262;2023-12-28T20:32:54;21.30;46.10
27823;DHT22;29019;47.630;8.262;2023-12-28T20:36:54;21.30;46.20
27823;DHT22;29019;47.630;8.262;2023-12-28T20:40:55;21.30;46.20
27823;DHT22;29019;47.630;8.262;2023-12-28T20:44:56;21.30;46.20
27823;DHT22;29019;47.630;8.262;2023-12-28T20:48:57;21.30;46.10
27823;DHT22;29019;47.630;8.262;2023-12-28T20:52:59;21.30;47.20
27823;DHT22;29019;47.630;8.262;2023-12-28T20:56:59;21.10;48.10
27823;DHT22;29019;47.630;8.262;2023-12-28T21:01:01;21.10;47.70
27823;DHT22;29019;47.630;8.262;2023-12-28T21:05:02;21.20;47.40
27823;DHT22;29019;47.630;8.262;2023-12-28T21:09:02;21.20;47.00
27823;DHT22;29019;47.630;8.262;2023-12-28T21:13:03;21.30;46.80
27823;DHT22;29019;47.630;8.262;2023-12-28T21:17:05;21.30;46.80
27823;DHT22;29019;47.630;8.262;2023-12-28T21:21:06;21.30;46.80
27823;DHT22;29019;47.630;8.262;2023-12-28T21:25:07;21.30;46.60
27823;DHT22;29019;47.630;8.262;2023-12-28T21:29:07;21.40;46.70
27823;DHT22;29019;47.630;8.262;2023-12-28T21:33:09;21.40;46.60
27823;DHT22;29019;47.630;8.262;2023-12-28T21:37:09;21.40;46.50
27823;DHT22;29019;47.630;8.262;2023-12-28T21:41:10;21.40;46.60
27823;DHT22;29019;47.630;8.262;2023-12-28T21:45:11;21.40;46.60
27823;DHT22;29019;47.630;8.262;2023-12-28T21:49:11;21.40;46.60
27823;DHT22;29019;47.630;8.262;2023-12-28T21:53:12;21.40;46.50
27823;DHT22;29019;47.630;8.262;2023-12-28T21:57:13;21.40;46.40
27823;DHT22;29019;47.630;8.262;2023-12-28T22:01:13;21.40;46.40
27823;DHT22;29019;47.630;8.262;2023-12-28T22:05:14;21.40;46.40
27823;DHT22;29019;47.630;8.262;2023-12-28T22:09:16;21.40;46.30
27823;DHT22;29019;47.630;8.262;2023-12-28T22:13:16;21.50;46.20
27823;DHT22;29019;47.630;8.262;2023-12-28T22:17:17;21.40;46.40
27823;DHT22;29019;47.630;8.262;2023-12-28T22:21:18;21.40;46.30
27823;DHT22;29019;47.630;8.262;2023-12-28T22:25:18;21.40;46.40
27823;DHT22;29019;47.630;8.262;2023-12-28T22:29:20;21.40;46.40
27823;DHT22;29019;47.630;8.262;2023-12-28T22:33:20;21.40;46.40
27823;DHT22;29019;47.630;8.262;2023-12-28T22:37:21;21.40;46.30
27823;DHT22;29019;47.630;8.262;2023-12-28T22:41:22;21.40;46.30
27823;DHT22;29019;47.630;8.262;2023-12-28T22:45:23;21.40;46.30
27823;DHT22;29019;47.630;8.262;2023-12-28T22:49:23;21.40;46.20
27823;DHT22;29019;47.630;8.262;2023-12-28T22:53:24;21.40;46.20
27823;DHT22;29019;47.630;8.262;2023-12-28T22:57:25;21.40;46.40
27823;DHT22;29019;47.630;8.262;2023-12-28T23:01:25;21.40;46.20
27823;DHT22;29019;47.630;8.262;2023-12-28T23:05:26;21.40;46.10
27823;DHT22;29019;47.630;8.262;2023-12-28T23:09:27;21.40;46.10
27823;DHT22;29019;47.630;8.262;2023-12-28T23:13:28;21.40;46.00
27823;DHT22;29019;47.630;8.262;2023-12-28T23:17:28;21.40;46.00
27823;DHT22;29019;47.630;8.262;2023-12-28T23:21:29;21.40;46.00
27823;DHT22;29019;47.630;8.262;2023-12-28T23:25:29;21.40;46.00
27823;DHT22;29019;47.630;8.262;2023-12-28T23:29:30;21.40;46.00
27823;DHT22;29019;47.630;8.262;2023-12-28T23:33:31;21.30;46.30
27823;DHT22;29019;47.630;8.262;2023-12-28T23:37:32;21.30;46.10
27823;DHT22;29019;47.630;8.262;2023-12-28T23:41:33;21.30;46.00
27823;DHT22;29019;47.630;8.262;2023-12-28T23:45:33;21.40;45.90
27823;DHT22;29019;47.630;8.262;2023-12-28T23:49:35;21.30;45.90
27823;DHT22;29019;47.630;8.262;2023-12-28T23:53:38;21.40;46.00
27823;DHT22;29019;47.630;8.262;2023-12-28T23:57:38;21.40;46.00
